Time;durP1;ratioP1;P1;durP2;ratioP2;P2;SDS_P1;SDS_P2;PMS_P1;PMS_P2;Temp;Humidity;BMP_temperature;BMP_pressure;BME280_temperature;BME280_humidity;BME280_pressure;Samples;Min_cycle;Max_cycle;Signal;HPM_P1;HPM_P2
2023/07/31 07:56:50;;;;;;;2.35;0.85;;;22.70;1.00;;;;;;5109195;27;20399;-47
2023/07/31 07:59:17;;;;;;;3.67;1.15;;;22.60;1.00;;;;;;5224277;22;20098;-44
2023/07/31 08:01:44;;;;;;;3.65;1.85;;;22.60;1.00;;;;;;5071757;28;20130;-46
2023/07/31 08:04:11;;;;;;;3.42;1.13;;;22.60;1.00;;;;;;5068367;28;20083;-45
2023/07/31 08:06:37;;;;;;;2.80;0.88;;;22.60;1.00;;;;;;5068640;28;20110;-46
2023/07/31 08:09:06;;;;;;;2.53;0.77;;;22.60;1.00;;;;;;5068237;28;20044;-44
2023/07/31 08:11:33;;;;;;;3.95;1.73;;;22.60;1.00;;;;;;5068624;28;20492;-50
2023/07/31 08:14:00;;;;;;;4.35;1.25;;;22.60;1.00;;;;;;5068485;28;20037;-47
2023/07/31 08:16:27;;;;;;;4.88;1.25;;;22.60;1.00;;;;;;5068483;28;20452;-46
2023/07/31 08:18:54;;;;;;;4.72;0.68;;;22.70;1.00;;;;;;5068095;28;20124;-44
2023/07/31 08:21:21;;;;;;;3.30;1.00;;;22.70;1.00;;;;;;5068409;28;20037;-46
2023/07/31 08:23:48;;;;;;;2.30;0.95;;;22.70;1.00;;;;;;5050309;28;20047;-46
2023/07/31 08:26:19;;;;;;;3.33;0.68;;;22.70;1.00;;;;;;5068061;28;20051;-45
2023/07/31 08:31:29;;;;;;;2.97;0.95;;;22.70;1.00;;;;;;4986848;28;20410;-44
2023/07/31 08:33:56;;;;;;;1.83;0.88;;;22.70;1.00;;;;;;4989009;28;20039;-46
2023/07/31 08:36:23;;;;;;;3.08;0.85;;;22.70;1.00;;;;;;4989009;28;20125;-47
2023/07/31 08:38:50;;;;;;;5.15;0.80;;;22.70;1.00;;;;;;4987448;28;20051;-44
2023/07/31 08:41:20;;;;;;;3.08;1.13;;;22.70;1.00;;;;;;4997168;28;20042;-49
2023/07/31 08:43:47;;;;;;;2.22;0.82;;;22.70;1.00;;;;;;5008114;28;20568;-51
2023/07/31 08:46:14;;;;;;;1.92;0.70;;;22.70;1.00;;;;;;4996173;28;20042;-49
2023/07/31 08:48:43;;;;;;;4.43;1.65;;;22.70;1.00;;;;;;4988544;28;20071;-46
2023/07/31 08:51:11;;;;;;;3.28;0.70;;;22.70;1.00;;;;;;4981061;28;20027;-44
2023/07/31 08:53:37;;;;;;;1.90;0.70;;;22.70;1.00;;;;;;4988823;28;20521;-48
2023/07/31 08:56:06;;;;;;;5.25;0.82;;;22.70;1.00;;;;;;4984695;28;20487;-48
2023/07/31 08:58:34;;;;;;;4.53;0.77;;;22.70;1.00;;;;;;4975485;28;20046;-44
2023/07/31 09:01:04;;;;;;;1.73;0.60;;;22.70;1.00;;;;;;5017205;23;20041;-45
2023/07/31 09:03:33;;;;;;;2.47;0.70;;;22.70;1.00;;;;;;5014655;28;20049;-46
2023/07/31 09:06:03;;;;;;;2.40;0.77;;;22.70;1.00;;;;;;5014699;28;20099;-46
2023/07/31 09:08:32;;;;;;;3.10;0.70;;;22.70;1.00;;;;;;5014319;28;20042;-45
2023/07/31 09:11:02;;;;;;;3.72;1.10;;;22.70;1.00;;;;;;5014355;28;20049;-45
2023/07/31 09:13:31;;;;;;;2.47;0.68;;;22.70;1.00;;;;;;5014598;28;20445;-46
2023/07/31 09:15:58;;;;;;;2.40;1.00;;;22.70;1.00;;;;;;5014223;28;20046;-45
2023/07/31 09:18:25;;;;;;;3.67;0.85;;;22.70;1.00;;;;;;5014028;28;20060;-52
2023/07/31 09:21:05;;;;;;;2.80;0.63;;;22.70;1.00;;;;;;5014256;28;20121;-47
2023/07/31 09:23:51;;;;;;;2.22;0.75;;;22.70;1.00;;;;;;5014327;28;20053;-50
2023/07/31 09:26:33;;;;;;;1.23;0.88;;;22.70;1.00;;;;;;5014096;28;20041;-45
2023/07/31 09:29:03;;;;;;;4.35;0.98;;;22.70;1.00;;;;;;5013917;28;20053;-47
2023/07/31 09:31:40;;;;;;;4.10;1.10;;;22.70;1.00;;;;;;5381524;22;20502;-44
2023/07/31 09:34:07;;;;;;;17.00;1.40;;;22.70;1.00;;;;;;4994200;28;20121;-46
2023/07/31 09:36:47;;;;;;;6.15;1.02;;;22.70;1.00;;;;;;4994593;28;20044;-44
2023/07/31 09:39:16;;;;;;;3.17;0.90;;;22.70;1.00;;;;;;4994366;28;20442;-49
2023/07/31 09:41:45;;;;;;;1.83;0.50;;;22.70;1.00;;;;;;4994608;28;20323;-46
2023/07/31 09:44:12;;;;;;;3.42;0.90;;;22.70;1.00;;;;;;4994187;28;20034;-49
2023/07/31 09:46:39;;;;;;;4.93;0.75;;;22.70;1.00;;;;;;4994105;28;20046;-47
2023/07/31 09:49:11;;;;;;;2.85;0.68;;;22.70;1.00;;;;;;4993856;28;20100;-52
2023/07/31 09:51:40;;;;;;;2.47;0.90;;;22.70;1.00;;;;;;4994399;28;20038;-48
2023/07/31 09:54:16;;;;;;;3.15;0.80;;;22.70;1.00;;;;;;4976809;28;20054;-52
2023/07/31 09:56:48;;;;;;;4.60;1.73;;;22.70;1.00;;;;;;4994252;28;20046;-50
2023/07/31 09:59:18;;;;;;;1.63;0.60;;;22.70;1.00;;;;;;4993691;28;20049;-45
2023/07/31 10:01:50;;;;;;;2.72;1.00;;;22.70;1.00;;;;;;4994161;28;20046;-50
2023/07/31 10:04:25;;;;;;;2.25;0.75;;;22.70;1.00;;;;;;5116550;23;20402;-47
2023/07/31 10:06:54;;;;;;;5.70;1.17;;;22.70;1.00;;;;;;4993352;28;20043;-47
2023/07/31 10:09:24;;;;;;;4.50;1.05;;;22.70;1.00;;;;;;4992700;28;20049;-49
2023/07/31 10:12:00;;;;;;;5.32;0.90;;;22.70;1.00;;;;;;4993978;28;20561;-49
2023/07/31 10:14:28;;;;;;;3.25;1.05;;;22.70;1.00;;;;;;4993809;28;20138;-45
2023/07/31 10:16:57;;;;;;;3.90;1.20;;;22.70;1.00;;;;;;4993588;28;20046;-45
2023/07/31 10:19:26;;;;;;;3.13;0.73;;;22.70;1.00;;;;;;4993225;28;20081;-45
2023/07/31 10:21:56;;;;;;;3.83;0.90;;;22.80;1.00;;;;;;4993587;28;20065;-50
2023/07/31 10:24:24;;;;;;;3.25;0.80;;;22.80;1.00;;;;;;4993474;28;20050;-51
2023/07/31 10:26:53;;;;;;;3.78;1.00;;;22.80;1.00;;;;;;4993593;28;20054;-52
2023/07/31 10:29:22;;;;;;;3.65;1.23;;;22.80;1.00;;;;;;4993228;28;20688;-49
2023/07/31 10:31:50;;;;;;;1.70;0.55;;;22.70;1.00;;;;;;4993511;28;20046;-52
2023/07/31 10:34:17;;;;;;;4.10;1.08;;;22.80;1.00;;;;;;5053156;22;20049;-52
2023/07/31 10:36:44;;;;;;;4.93;1.13;;;22.80;1.00;;;;;;5004794;28;20041;-51
2023/07/31 10:39:33;;;;;;;8.50;1.55;;;22.80;1.00;;;;;;5011970;28;20119;-52
2023/07/31 10:42:08;;;;;;;3.15;1.05;;;22.80;1.00;;;;;;5012800;28;20124;-52
2023/07/31 10:44:35;;;;;;;3.13;0.93;;;22.80;1.00;;;;;;5013016;28;20117;-52
2023/07/31 10:47:03;;;;;;;5.18;0.90;;;22.80;1.00;;;;;;5012689;28;20453;-50
2023/07/31 10:49:31;;;;;;;5.10;1.13;;;22.80;1.00;;;;;;5012439;28;20112;-52
2023/07/31 10:51:58;;;;;;;2.97;1.05;;;22.80;1.00;;;;;;5012643;28;20383;-50
2023/07/31 10:54:27;;;;;;;5.47;0.80;;;22.80;1.00;;;;;;5013156;28;20038;-49
2023/07/31 10:56:54;;;;;;;3.80;0.82;;;22.80;1.00;;;;;;5012744;28;20048;-52
2023/07/31 10:59:28;;;;;;;3.28;0.70;;;22.80;1.00;;;;;;5012223;28;20066;-52
2023/07/31 11:02:02;;;;;;;6.63;1.33;;;22.80;1.00;;;;;;5012670;28;20042;-45
2023/07/31 11:04:30;;;;;;;5.22;1.38;;;22.80;1.00;;;;;;5029173;22;20049;-52
2023/07/31 11:07:02;;;;;;;3.67;1.25;;;22.80;1.00;;;;;;5012606;28;20069;-50
2023/07/31 11:09:34;;;;;;;5.15;1.00;;;22.80;1.00;;;;;;5012150;28;20109;-49
2023/07/31 11:12:01;;;;;;;6.55;2.00;;;22.80;1.00;;;;;;5012730;28;20042;-51
2023/07/31 11:14:27;;;;;;;5.18;1.45;;;22.80;1.00;;;;;;5012078;28;20030;-52
2023/07/31 11:16:54;;;;;;;2.72;1.10;;;22.80;1.00;;;;;;5011580;28;20060;-52
2023/07/31 11:19:23;;;;;;;5.00;0.88;;;22.80;1.00;;;;;;5002779;28;20128;-50
2023/07/31 11:21:54;;;;;;;3.42;0.80;;;22.80;1.00;;;;;;5011675;28;20041;-45
2023/07/31 11:24:22;;;;;;;5.60;1.63;;;22.80;1.00;;;;;;5011344;28;20124;-51
2023/07/31 11:26:53;;;;;;;6.07;1.73;;;22.80;1.00;;;;;;5011851;28;20076;-51
2023/07/31 11:29:20;;;;;;;4.97;1.35;;;22.80;1.00;;;;;;5011822;28;20096;-48
2023/07/31 11:31:49;;;;;;;7.00;1.80;;;22.80;1.00;;;;;;5012034;28;20477;-47
2023/07/31 11:34:17;;;;;;;8.32;1.40;;;22.80;1.00;;;;;;5011917;28;20037;-49
2023/07/31 11:36:54;;;;;;;2.95;1.02;;;22.80;1.00;;;;;;5169559;22;20497;-49
2023/07/31 11:39:21;;;;;;;4.00;1.90;;;22.80;1.00;;;;;;5011718;28;20489;-51
2023/07/31 11:41:48;;;;;;;5.10;1.38;;;22.80;1.00;;;;;;5011997;28;20041;-47
2023/07/31 11:44:15;;;;;;;4.38;1.00;;;22.80;1.00;;;;;;5011727;28;20056;-47
2023/07/31 11:46:56;;;;;;;6.00;1.50;;;22.80;1.00;;;;;;5011923;28;20042;-49
2023/07/31 11:49:23;;;;;;;4.45;1.23;;;22.80;1.00;;;;;;5011520;28;20045;-50
2023/07/31 11:51:50;;;;;;;7.22;1.40;;;22.80;1.00;;;;;;5011915;28;20030;-49
2023/07/31 11:54:18;;;;;;;5.93;0.95;;;22.90;1.00;;;;;;5011700;28;20077;-51
2023/07/31 11:56:45;;;;;;;4.65;2.33;;;22.90;1.00;;;;;;5011947;28;20046;-50
2023/07/31 11:59:12;;;;;;;5.75;1.27;;;22.90;1.00;;;;;;5011486;28;20038;-51
2023/07/31 12:01:39;;;;;;;3.60;0.73;;;22.90;1.00;;;;;;5011807;28;20092;-43
2023/07/31 12:04:06;;;;;;;3.08;0.85;;;22.90;1.00;;;;;;5011719;28;20452;-50
2023/07/31 12:06:37;;;;;;;4.38;1.05;;;22.90;1.00;;;;;;5508051;22;20128;-48
2023/07/31 12:09:05;;;;;;;7.35;1.30;;;22.90;1.00;;;;;;5011029;28;20092;-49
2023/07/31 12:11:44;;;;;;;4.72;0.75;;;22.90;1.00;;;;;;5011360;28;20053;-49
2023/07/31 12:14:30;;;;;;;5.35;1.08;;;22.90;1.00;;;;;;5011309;28;20069;-49
2023/07/31 12:17:03;;;;;;;7.35;1.67;;;22.90;1.00;;;;;;5011609;28;20042;-45
2023/07/31 12:19:31;;;;;;;4.35;1.23;;;22.90;1.00;;;;;;5011474;28;20061;-49
2023/07/31 12:22:01;;;;;;;3.65;1.20;;;22.90;1.00;;;;;;5011477;28;20037;-48
2023/07/31 12:24:28;;;;;;;7.35;1.27;;;22.90;1.00;;;;;;5011686;28;20456;-53
2023/07/31 12:26:55;;;;;;;4.30;1.33;;;22.90;1.00;;;;;;5011477;28;20405;-47
2023/07/31 12:29:22;;;;;;;6.78;1.65;;;22.90;1.00;;;;;;5011128;28;20069;-46
2023/07/31 12:31:48;;;;;;;6.85;1.27;;;22.90;1.00;;;;;;5011589;28;20129;-51
2023/07/31 12:34:17;;;;;;;3.47;1.10;;;22.90;1.00;;;;;;5014685;28;20042;-47
2023/07/31 12:36:44;;;;;;;5.35;1.30;;;22.90;1.00;;;;;;5014962;28;20044;-49
2023/07/31 12:39:12;;;;;;;4.25;1.02;;;22.90;1.00;;;;;;5144715;22;20050;-48
2023/07/31 12:41:39;;;;;;;7.97;1.15;;;22.90;1.00;;;;;;4995472;28;20125;-51
2023/07/31 12:44:06;;;;;;;5.38;1.42;;;22.90;1.00;;;;;;4985766;28;20039;-46
2023/07/31 12:46:33;;;;;;;4.25;1.15;;;22.90;1.00;;;;;;4975788;28;20040;-52
2023/07/31 12:49:00;;;;;;;7.10;2.13;;;22.90;1.00;;;;;;4975379;28;20053;-49
2023/07/31 12:51:27;;;;;;;6.40;2.20;;;23.00;1.00;;;;;;4975682;28;20039;-48
2023/07/31 12:53:54;;;;;;;3.13;1.00;;;23.00;1.00;;;;;;4975688;28;20069;-52
2023/07/31 12:56:21;;;;;;;4.15;1.05;;;22.90;1.00;;;;;;4975707;28;20118;-49
2023/07/31 12:58:47;;;;;;;4.45;1.30;;;23.00;1.00;;;;;;4975374;28;20044;-52
2023/07/31 13:01:14;;;;;;;9.95;1.83;;;23.00;1.00;;;;;;4975753;28;20046;-52
2023/07/31 13:03:41;;;;;;;12.63;2.17;;;23.00;1.00;;;;;;4975670;28;20506;-52
2023/07/31 13:06:08;;;;;;;3.22;1.40;;;23.00;1.00;;;;;;4975356;28;20043;-50
2023/07/31 13:08:35;;;;;;;6.13;1.43;;;23.00;1.00;;;;;;5033941;22;20061;-52
2023/07/31 13:11:02;;;;;;;3.45;1.05;;;23.00;1.00;;;;;;4993227;28;20048;-51
2023/07/31 13:13:30;;;;;;;7.18;1.80;;;23.00;1.00;;;;;;4995025;28;20050;-50
2023/07/31 13:15:59;;;;;;;6.63;1.63;;;23.00;1.00;;;;;;4994911;28;20042;-51
2023/07/31 13:18:26;;;;;;;7.43;1.70;;;23.00;1.00;;;;;;4994733;28;20113;-49
2023/07/31 13:20:53;;;;;;;5.80;1.40;;;23.00;1.00;;;;;;4994938;28;20039;-50
2023/07/31 13:23:19;;;;;;;4.97;1.77;;;23.00;1.00;;;;;;4994855;28;20054;-51
2023/07/31 13:25:46;;;;;;;6.32;1.30;;;23.00;1.00;;;;;;4994680;28;20045;-50
2023/07/31 13:28:14;;;;;;;5.22;1.58;;;23.00;1.00;;;;;;4994370;28;20058;-51
2023/07/31 13:30:41;;;;;;;5.22;1.17;;;23.00;1.00;;;;;;4994660;28;20493;-47
2023/07/31 13:33:08;;;;;;;5.65;1.45;;;23.00;1.00;;;;;;4994656;28;20464;-50
2023/07/31 13:35:54;;;;;;;9.18;1.38;;;23.00;1.00;;;;;;4994414;28;20038;-49
2023/07/31 13:38:21;;;;;;;5.03;1.50;;;23.00;1.00;;;;;;4994179;28;20130;-51
2023/07/31 13:40:48;;;;;;;7.53;1.92;;;23.00;1.00;;;;;;5052498;22;20046;-52
2023/07/31 13:43:15;;;;;;;6.30;1.27;;;23.00;1.00;;;;;;5013919;28;20396;-52
2023/07/31 13:45:42;;;;;;;23.90;4.05;;;23.00;1.00;;;;;;5009855;28;20077;-52
2023/07/31 13:48:09;;;;;;;7.20;2.10;;;23.00;1.00;;;;;;5010063;28;20041;-51
2023/07/31 13:50:36;;;;;;;7.03;1.95;;;23.00;1.00;;;;;;5013828;28;20041;-51
2023/07/31 13:53:02;;;;;;;7.72;1.73;;;23.00;1.00;;;;;;5013922;28;20114;-49
2023/07/31 13:55:29;;;;;;;2.67;1.50;;;23.00;1.00;;;;;;5013960;28;20049;-48
2023/07/31 13:57:56;;;;;;;7.15;1.70;;;23.10;1.00;;;;;;5013509;28;20124;-52
2023/07/31 14:00:23;;;;;;;6.22;1.98;;;23.10;1.00;;;;;;5013782;28;20125;-49
2023/07/31 14:02:50;;;;;;;8.02;2.17;;;23.10;1.00;;;;;;5013965;28;20037;-50
2023/07/31 14:05:17;;;;;;;5.00;1.35;;;23.10;1.00;;;;;;5013351;28;20041;-49
2023/07/31 14:07:44;;;;;;;5.32;1.65;;;23.10;1.00;;;;;;5011874;28;20034;-51
2023/07/31 14:10:11;;;;;;;6.65;1.80;;;23.10;1.00;;;;;;5150930;23;21019;-50
2023/07/31 14:12:38;;;;;;;6.75;1.40;;;23.10;1.00;;;;;;5012997;28;20046;-52
2023/07/31 14:15:10;;;;;;;6.78;2.10;;;23.10;1.00;;;;;;4999982;28;20420;-52
2023/07/31 14:17:37;;;;;;;8.02;2.05;;;23.10;1.00;;;;;;5006118;28;20049;-52
2023/07/31 14:20:04;;;;;;;10.88;1.98;;;23.10;1.00;;;;;;5013540;28;20405;-46
2023/07/31 14:22:33;;;;;;;4.95;1.75;;;23.10;1.00;;;;;;5000778;28;20145;-52
2023/07/31 14:25:01;;;;;;;8.07;1.90;;;23.10;1.00;;;;;;5002691;28;20108;-50
2023/07/31 14:27:28;;;;;;;8.25;2.13;;;23.10;1.00;;;;;;4999631;28;20160;-52
2023/07/31 14:29:55;;;;;;;10.77;1.63;;;23.10;1.00;;;;;;5004838;28;20121;-45
2023/07/31 14:32:25;;;;;;;4.82;1.30;;;23.10;1.00;;;;;;5005550;28;20121;-51
2023/07/31 14:34:52;;;;;;;6.55;2.05;;;23.10;1.00;;;;;;5007104;28;20137;-50
2023/07/31 14:37:18;;;;;;;4.88;1.38;;;23.10;1.00;;;;;;5009062;28;20042;-52
2023/07/31 14:39:45;;;;;;;10.52;1.70;;;23.10;1.00;;;;;;4999446;28;20460;-49
2023/07/31 14:42:12;;;;;;;7.00;1.88;;;23.10;1.00;;;;;;5448509;22;20043;-50
2023/07/31 14:44:39;;;;;;;5.30;1.25;;;23.10;1.00;;;;;;4999233;28;20054;-50
2023/07/31 14:47:06;;;;;;;7.65;1.92;;;23.20;1.00;;;;;;4989601;28;20160;-56
2023/07/31 14:49:32;;;;;;;6.68;1.52;;;23.20;1.00;;;;;;4984114;28;20045;-51
2023/07/31 14:51:59;;;;;;;5.43;1.50;;;23.20;1.00;;;;;;4988059;28;20062;-50
2023/07/31 14:54:26;;;;;;;1.83;1.00;;;23.20;1.00;;;;;;4987821;28;20507;-50
2023/07/31 14:56:53;;;;;;;7.20;1.88;;;23.20;1.00;;;;;;4985202;28;20072;-47
2023/07/31 14:59:20;;;;;;;5.85;1.38;;;23.20;1.00;;;;;;4987604;28;20113;-50
2023/07/31 15:01:46;;;;;;;4.95;1.15;;;23.20;1.00;;;;;;4990987;28;20375;-51
2023/07/31 15:04:13;;;;;;;10.40;1.50;;;23.20;1.00;;;;;;4987521;28;20074;-50
2023/07/31 15:06:40;;;;;;;3.15;1.15;;;23.20;1.00;;;;;;4986753;28;20125;-50
2023/07/31 15:09:08;;;;;;;5.32;2.15;;;23.20;1.00;;;;;;4988789;28;20533;-49
2023/07/31 15:11:35;;;;;;;6.38;1.85;;;23.20;1.00;;;;;;4989436;28;20437;-50
2023/07/31 15:14:02;;;;;;;8.40;1.95;;;23.20;1.00;;;;;;5180988;22;20053;-49
2023/07/31 15:16:31;;;;;;;7.82;1.73;;;23.20;1.00;;;;;;4994800;28;20045;-50
2023/07/31 15:18:58;;;;;;;4.80;1.92;;;23.20;1.00;;;;;;5002183;28;20042;-51
2023/07/31 15:21:25;;;;;;;11.88;2.05;;;23.20;1.00;;;;;;5004580;28;20042;-51
2023/07/31 15:23:51;;;;;;;5.28;1.60;;;23.20;1.00;;;;;;5001250;28;20038;-49
2023/07/31 15:26:18;;;;;;;3.90;1.13;;;23.20;1.00;;;;;;5008717;28;20409;-49
2023/07/31 15:28:49;;;;;;;7.40;1.58;;;23.20;1.00;;;;;;5000489;28;20043;-49
2023/07/31 15:31:16;;;;;;;3.08;1.30;;;23.20;1.00;;;;;;5001737;28;20042;-47
2023/07/31 15:33:42;;;;;;;4.32;1.20;;;23.20;1.00;;;;;;5001153;28;20406;-50
2023/07/31 15:36:09;;;;;;;9.50;2.28;;;23.20;1.00;;;;;;4992530;28;20049;-49
2023/07/31 15:38:36;;;;;;;5.50;1.55;;;23.20;1.00;;;;;;4992453;28;20073;-51
2023/07/31 15:41:03;;;;;;;5.63;1.40;;;23.20;1.00;;;;;;4992956;28;20093;-51
2023/07/31 15:43:30;;;;;;;7.47;1.42;;;23.20;1.00;;;;;;5001255;28;20042;-50
2023/07/31 15:45:56;;;;;;;4.55;1.88;;;23.20;1.00;;;;;;4992874;28;20049;-46
2023/07/31 15:48:23;;;;;;;5.03;1.92;;;23.20;1.00;;;;;;4992060;28;20073;-51
2023/07/31 15:50:50;;;;;;;7.45;1.33;;;23.20;1.00;;;;;;4992526;28;20146;-49
2023/07/31 15:53:17;;;;;;;7.50;1.92;;;23.30;1.00;;;;;;4992656;28;20433;-51
2023/07/31 15:55:44;;;;;;;6.15;1.65;;;23.20;1.00;;;;;;4992411;28;20046;-49
2023/07/31 15:58:11;;;;;;;7.72;1.38;;;23.20;1.00;;;;;;4992048;28;20118;-49
2023/07/31 16:00:37;;;;;;;6.15;1.65;;;23.20;1.00;;;;;;4992441;28;20508;-51
2023/07/31 16:03:04;;;;;;;4.22;1.15;;;23.20;1.00;;;;;;4992914;28;20057;-50
2023/07/31 16:05:31;;;;;;;4.13;1.17;;;23.20;1.00;;;;;;4999461;28;20474;-47
2023/07/31 16:07:58;;;;;;;3.47;1.27;;;23.20;1.00;;;;;;4999765;28;20482;-47
2023/07/31 16:10:25;;;;;;;3.45;1.27;;;23.20;1.00;;;;;;4993166;28;20050;-51
2023/07/31 16:12:52;;;;;;;4.97;1.60;;;23.20;1.00;;;;;;4998185;28;20474;-48
2023/07/31 16:15:19;;;;;;;5.85;2.45;;;23.20;1.00;;;;;;5060654;23;20376;-49
2023/07/31 16:17:46;;;;;;;5.22;1.23;;;23.20;1.00;;;;;;4967843;28;20042;-51
2023/07/31 16:20:13;;;;;;;6.10;1.98;;;23.30;1.00;;;;;;4963663;28;20031;-51
2023/07/31 16:22:39;;;;;;;4.43;1.30;;;23.30;1.00;;;;;;4973347;28;20487;-50
2023/07/31 16:25:07;;;;;;;5.93;1.30;;;23.30;1.00;;;;;;4974158;28;20530;-49
2023/07/31 16:27:34;;;;;;;9.15;1.70;;;23.30;1.00;;;;;;4961430;28;20047;-50
2023/07/31 16:30:01;;;;;;;7.57;1.73;;;23.30;1.00;;;;;;4961860;28;20055;-52
2023/07/31 16:32:27;;;;;;;6.25;1.50;;;23.30;1.00;;;;;;4966605;28;20122;-50
2023/07/31 16:34:55;;;;;;;4.80;2.33;;;23.30;1.00;;;;;;4964535;28;20042;-50
2023/07/31 16:37:22;;;;;;;10.25;2.88;;;23.30;1.00;;;;;;4968575;28;20039;-51
2023/07/31 16:39:51;;;;;;;6.43;1.55;;;23.30;1.00;;;;;;4970538;28;20105;-51
2023/07/31 16:42:18;;;;;;;5.95;2.00;;;23.30;1.00;;;;;;4970178;28;20047;-48
2023/07/31 16:47:28;;;;;;;9.95;1.58;;;23.30;1.00;;;;;;4929559;29;20484;-51
2023/07/31 16:49:55;;;;;;;4.97;1.20;;;23.30;1.00;;;;;;4939061;29;20067;-52
2023/07/31 16:52:22;;;;;;;11.35;1.95;;;23.30;1.00;;;;;;4939656;29;20124;-51
2023/07/31 16:54:48;;;;;;;6.78;1.52;;;23.30;1.00;;;;;;4934976;29;20052;-52
2023/07/31 16:57:16;;;;;;;5.22;1.77;;;23.30;1.00;;;;;;4928705;29;20538;-52
2023/07/31 16:59:42;;;;;;;8.88;2.38;;;23.30;1.00;;;;;;4930035;29;20055;-52
2023/07/31 17:02:09;;;;;;;6.28;1.02;;;23.30;1.00;;;;;;4928530;29;20118;-46
2023/07/31 17:04:36;;;;;;;7.13;1.25;;;23.30;1.00;;;;;;4927615;29;20913;-47
2023/07/31 17:07:03;;;;;;;7.78;1.30;;;23.30;1.00;;;;;;4930819;29;20040;-48
2023/07/31 17:09:30;;;;;;;6.18;1.60;;;23.30;1.00;;;;;;4927226;29;20047;-51
2023/07/31 17:11:57;;;;;;;5.32;1.73;;;23.30;1.00;;;;;;4919086;29;20048;-51
2023/07/31 17:14:24;;;;;;;6.47;1.30;;;23.30;1.00;;;;;;4926142;29;20047;-49
2023/07/31 17:16:52;;;;;;;12.23;2.13;;;23.30;1.00;;;;;;5369963;23;20053;-52
2023/07/31 17:19:19;;;;;;;5.13;1.70;;;23.30;1.00;;;;;;5004235;28;20040;-51
2023/07/31 17:21:46;;;;;;;4.75;1.30;;;23.30;1.00;;;;;;5003400;28;20128;-49
2023/07/31 17:24:13;;;;;;;8.10;1.08;;;23.30;1.00;;;;;;5002959;28;20148;-50
2023/07/31 17:26:40;;;;;;;7.47;1.42;;;23.30;1.00;;;;;;4991001;28;20039;-49
2023/07/31 17:29:06;;;;;;;9.02;1.52;;;23.30;1.00;;;;;;4992140;28;20077;-52
2023/07/31 17:31:34;;;;;;;3.58;1.73;;;23.30;1.00;;;;;;4992956;28;20466;-50
2023/07/31 17:34:01;;;;;;;7.10;1.60;;;23.30;1.00;;;;;;4991829;28;20090;-48
2023/07/31 17:36:28;;;;;;;4.65;1.52;;;23.30;1.00;;;;;;4993512;28;20492;-52
2023/07/31 17:38:55;;;;;;;4.72;1.73;;;23.30;1.00;;;;;;4993006;28;20046;-52
2023/07/31 17:41:23;;;;;;;6.13;1.40;;;23.30;1.00;;;;;;4993963;28;20085;-50
2023/07/31 17:43:50;;;;;;;5.88;1.63;;;23.30;1.00;;;;;;4993902;28;20100;-50
2023/07/31 17:46:17;;;;;;;8.65;1.77;;;23.30;1.00;;;;;;4992993;28;20117;-50
2023/07/31 17:48:44;;;;;;;7.70;2.65;;;23.30;1.00;;;;;;5143941;22;20438;-50
2023/07/31 17:51:11;;;;;;;6.57;1.25;;;23.30;1.00;;;;;;4978288;28;20055;-52
2023/07/31 17:53:38;;;;;;;4.82;1.27;;;23.30;1.00;;;;;;4990367;28;20046;-51
2023/07/31 17:56:05;;;;;;;3.35;1.20;;;23.30;1.00;;;;;;4986756;28;20040;-52
2023/07/31 17:58:32;;;;;;;8.63;0.93;;;23.30;1.00;;;;;;4983374;28;20046;-48
2023/07/31 18:00:59;;;;;;;7.75;1.70;;;23.30;1.00;;;;;;4979130;28;20061;-48
2023/07/31 18:03:26;;;;;;;7.55;1.55;;;23.30;1.00;;;;;;4983625;28;20034;-50
2023/07/31 18:05:53;;;;;;;4.55;1.30;;;23.30;1.00;;;;;;4981069;28;20042;-50
2023/07/31 18:08:20;;;;;;;6.05;1.23;;;23.30;1.00;;;;;;4986476;28;20046;-51
2023/07/31 18:10:47;;;;;;;4.93;1.48;;;23.30;1.00;;;;;;4989906;28;20446;-50
2023/07/31 18:13:14;;;;;;;4.50;1.42;;;23.30;1.00;;;;;;4987788;28;20043;-46
2023/07/31 18:15:45;;;;;;;4.20;1.35;;;23.30;1.00;;;;;;4981806;28;20085;-46
2023/07/31 18:18:12;;;;;;;2.83;1.15;;;23.30;1.00;;;;;;4987448;28;20122;-44
2023/07/31 18:20:39;;;;;;;4.63;1.45;;;23.30;1.00;;;;;;5050714;23;20129;-44
2023/07/31 18:23:06;;;;;;;6.90;1.38;;;23.30;1.00;;;;;;4986939;28;20058;-45
2023/07/31 18:25:33;;;;;;;5.72;1.50;;;23.30;1.00;;;;;;4987276;28;20417;-44
2023/07/31 18:28:00;;;;;;;10.93;1.90;;;23.30;1.00;;;;;;5006512;28;20572;-48
2023/07/31 18:30:27;;;;;;;6.43;1.33;;;23.30;1.00;;;;;;4996347;28;20077;-45
2023/07/31 18:32:54;;;;;;;5.80;1.30;;;23.30;1.00;;;;;;5002351;28;20049;-44
2023/07/31 18:35:21;;;;;;;6.13;2.17;;;23.30;1.00;;;;;;5004945;28;20281;-47
2023/07/31 18:37:48;;;;;;;7.93;1.58;;;23.30;1.00;;;;;;5000812;28;20045;-43
2023/07/31 18:40:15;;;;;;;6.65;1.58;;;23.30;1.00;;;;;;4994258;28;20076;-47
2023/07/31 18:42:42;;;;;;;7.78;1.10;;;23.30;1.00;;;;;;4997775;28;20075;-45
2023/07/31 18:45:08;;;;;;;5.45;1.52;;;23.30;1.00;;;;;;5003346;28;20397;-44
2023/07/31 18:47:35;;;;;;;5.25;1.42;;;23.30;1.00;;;;;;4999373;28;20043;-49
2023/07/31 18:50:04;;;;;;;5.78;1.42;;;23.30;1.00;;;;;;5028066;22;20125;-45
2023/07/31 18:52:31;;;;;;;6.75;1.40;;;23.30;1.00;;;;;;5000031;28;20066;-48
2023/07/31 18:54:58;;;;;;;7.25;2.58;;;23.30;1.00;;;;;;4983817;28;20038;-44
2023/07/31 18:57:25;;;;;;;6.75;1.35;;;23.30;1.00;;;;;;4989038;28;20042;-49
2023/07/31 18:59:52;;;;;;;9.93;1.63;;;23.30;1.00;;;;;;4985367;28;20046;-43
2023/07/31 19:02:19;;;;;;;7.75;1.63;;;23.30;1.00;;;;;;4983048;28;20125;-48
2023/07/31 19:04:46;;;;;;;7.32;1.60;;;23.30;1.00;;;;;;4966950;28;20058;-47
2023/07/31 19:07:13;;;;;;;3.63;0.90;;;23.30;1.00;;;;;;4982575;28;20093;-44
2023/07/31 19:09:39;;;;;;;4.28;1.50;;;23.30;1.00;;;;;;4985003;28;20549;-43
2023/07/31 19:12:06;;;;;;;6.80;1.15;;;23.30;1.00;;;;;;4977727;28;20073;-48
2023/07/31 19:14:34;;;;;;;4.38;1.02;;;23.30;1.00;;;;;;4979722;28;20050;-45
2023/07/31 19:17:01;;;;;;;6.50;1.83;;;23.30;1.00;;;;;;4987166;28;20061;-50
2023/07/31 19:19:28;;;;;;;3.80;1.23;;;23.30;1.00;;;;;;4988768;28;20052;-43
2023/07/31 19:21:54;;;;;;;8.82;1.33;;;23.30;1.00;;;;;;5095145;23;20502;-50
2023/07/31 19:24:22;;;;;;;6.20;2.20;;;23.30;1.00;;;;;;4999562;28;20046;-46
2023/07/31 19:26:50;;;;;;;8.50;2.25;;;23.30;1.00;;;;;;4991167;28;20558;-47
2023/07/31 19:29:17;;;;;;;9.20;1.25;;;23.30;1.00;;;;;;4989609;28;20121;-48
2023/07/31 19:31:44;;;;;;;5.20;1.20;;;23.30;1.00;;;;;;4993962;28;20113;-44
2023/07/31 19:34:11;;;;;;;7.10;1.63;;;23.30;1.00;;;;;;4986770;28;20039;-46
2023/07/31 19:36:39;;;;;;;3.30;1.08;;;23.30;1.00;;;;;;4987792;28;20046;-48
2023/07/31 19:39:07;;;;;;;3.95;1.17;;;23.30;1.00;;;;;;4999583;28;20038;-47
2023/07/31 19:41:33;;;;;;;4.97;1.50;;;23.30;1.00;;;;;;4995073;28;20163;-48
2023/07/31 19:44:00;;;;;;;6.50;1.42;;;23.30;1.00;;;;;;4994967;28;20070;-46
2023/07/31 19:46:27;;;;;;;7.43;2.55;;;23.30;1.00;;;;;;4993792;28;20047;-47
2023/07/31 19:48:54;;;;;;;4.82;1.50;;;23.30;1.00;;;;;;4994497;28;20038;-48
2023/07/31 19:51:21;;;;;;;8.38;1.20;;;23.30;1.00;;;;;;5289653;22;20065;-48
2023/07/31 19:53:48;;;;;;;6.15;1.77;;;23.30;1.00;;;;;;5000337;28;20112;-48
2023/07/31 19:56:15;;;;;;;5.30;1.73;;;23.30;1.00;;;;;;4998971;28;20078;-44
2023/07/31 19:58:42;;;;;;;7.53;1.98;;;23.30;1.00;;;;;;4999378;28;20030;-46
2023/07/31 20:01:09;;;;;;;5.72;1.67;;;23.30;1.00;;;;;;5001290;28;20065;-51
2023/07/31 20:03:36;;;;;;;6.15;1.40;;;23.30;1.00;;;;;;4997286;28;20042;-48
2023/07/31 20:06:03;;;;;;;8.43;2.15;;;23.30;1.00;;;;;;5000449;28;20553;-51
2023/07/31 20:08:30;;;;;;;4.22;1.30;;;23.30;1.00;;;;;;4999620;28;20516;-48
2023/07/31 20:10:59;;;;;;;7.40;1.45;;;23.30;1.00;;;;;;4997565;28;20070;-47
2023/07/31 20:13:26;;;;;;;6.90;1.67;;;23.30;1.00;;;;;;5000502;28;20478;-46
2023/07/31 20:15:53;;;;;;;4.07;1.10;;;23.30;1.00;;;;;;5000686;28;20061;-48
2023/07/31 20:18:20;;;;;;;9.32;2.10;;;23.30;1.00;;;;;;5001330;28;20504;-45
2023/07/31 20:20:46;;;;;;;7.68;2.35;;;23.30;1.00;;;;;;5001321;28;20097;-50
2023/07/31 20:23:16;;;;;;;8.20;1.70;;;23.30;1.00;;;;;;5039073;23;20042;-45
2023/07/31 20:26:02;;;;;;;7.25;1.85;;;23.30;1.00;;;;;;4970729;28;20047;-51
2023/07/31 20:28:29;;;;;;;4.95;2.20;;;23.30;1.00;;;;;;4970183;28;20034;-44
2023/07/31 20:30:56;;;;;;;4.88;1.60;;;23.20;1.00;;;;;;4970627;28;20483;-45
2023/07/31 20:33:23;;;;;;;5.25;1.88;;;23.30;1.00;;;;;;4968555;28;20047;-49
2023/07/31 20:35:50;;;;;;;8.15;1.77;;;23.30;1.00;;;;;;4971701;28;20146;-52
2023/07/31 20:38:17;;;;;;;9.55;2.13;;;23.30;1.00;;;;;;4972415;28;20113;-52
2023/07/31 20:40:44;;;;;;;9.38;1.45;;;23.30;1.00;;;;;;4972691;28;20085;-47
2023/07/31 20:43:15;;;;;;;9.60;2.38;;;23.30;1.00;;;;;;4972693;28;20077;-51
2023/07/31 20:45:42;;;;;;;8.30;2.38;;;23.30;1.00;;;;;;4972959;28;20435;-49
2023/07/31 20:48:11;;;;;;;9.75;1.88;;;23.30;1.00;;;;;;4972094;28;20093;-51
2023/07/31 20:50:38;;;;;;;6.07;2.00;;;23.30;1.00;;;;;;4972626;28;20506;-49
2023/07/31 20:53:05;;;;;;;7.47;1.85;;;23.30;1.00;;;;;;4974145;28;20041;-50
2023/07/31 20:55:32;;;;;;;8.80;1.83;;;23.30;1.00;;;;;;4975358;28;20035;-50
2023/07/31 20:57:59;;;;;;;9.88;2.00;;;23.20;1.00;;;;;;4975496;28;20058;-45
2023/07/31 21:00:26;;;;;;;7.00;1.80;;;23.20;1.00;;;;;;4975565;28;20129;-52
2023/07/31 21:02:53;;;;;;;7.30;1.80;;;23.20;1.00;;;;;;4984012;28;20073;-46